sensor_id;sensor_type;location;lat;lon;timestamp;P1;durP1;ratioP1;P2;durP2;ratioP2
16314;SDS011;8266;52.150;4.768;2023-04-15T00:00:36;7.18;;;3.17;;
16314;SDS011;8266;52.150;4.768;2023-04-15T00:03:03;7.70;;;3.38;;
16314;SDS011;8266;52.150;4.768;2023-04-15T00:05:31;5.68;;;3.70;;
16314;SDS011;8266;52.150;4.768;2023-04-15T00:07:58;6.65;;;3.70;;
16314;SDS011;8266;52.150;4.768;2023-04-15T00:10:27;8.43;;;3.80;;
16314;SDS011;8266;52.150;4.768;2023-04-15T00:12:54;7.53;;;4.05;;
16314;SDS011;8266;52.150;4.768;2023-04-15T00:15:21;9.05;;;3.92;;
16314;SDS011;8266;52.150;4.768;2023-04-15T00:17:49;3.97;;;3.38;;
16314;SDS011;8266;52.150;4.768;2023-04-15T00:20:17;6.07;;;3.83;;
16314;SDS011;8266;52.150;4.768;2023-04-15T00:22:43;5.32;;;3.92;;
16314;SDS011;8266;52.150;4.768;2023-04-15T00:25:11;5.40;;;3.38;;
16314;SDS011;8266;52.150;4.768;2023-04-15T00:27:40;6.00;;;3.63;;
16314;SDS011;8266;52.150;4.768;2023-04-15T00:30:07;4.97;;;3.60;;
16314;SDS011;8266;52.150;4.768;2023-04-15T00:32:35;4.32;;;3.33;;
16314;SDS011;8266;52.150;4.768;2023-04-15T00:35:02;7.13;;;3.40;;
16314;SDS011;8266;52.150;4.768;2023-04-15T00:37:30;4.25;;;3.05;;
16314;SDS011;8266;52.150;4.768;2023-04-15T00:39:59;4.72;;;3.42;;
16314;SDS011;8266;52.150;4.768;2023-04-15T00:42:27;4.53;;;3.10;;
16314;SDS011;8266;52.150;4.768;2023-04-15T00:44:55;4.72;;;2.67;;
16314;SDS011;8266;52.150;4.768;2023-04-15T00:47:22;4.68;;;3.13;;
16314;SDS011;8266;52.150;4.768;2023-04-15T00:49:49;5.07;;;3.13;;
16314;SDS011;8266;52.150;4.768;2023-04-15T00:52:16;4.13;;;3.03;;
16314;SDS011;8266;52.150;4.768;2023-04-15T00:54:43;6.15;;;3.30;;
16314;SDS011;8266;52.150;4.768;2023-04-15T00:57:10;6.10;;;3.67;;
16314;SDS011;8266;52.150;4.768;2023-04-15T00:59:37;6.25;;;3.47;;
16314;SDS011;8266;52.150;4.768;2023-04-15T01:02:05;5.78;;;3.60;;
16314;SDS011;8266;52.150;4.768;2023-04-15T01:04:32;6.05;;;3.08;;
16314;SDS011;8266;52.150;4.768;2023-04-15T01:07:01;4.97;;;3.65;;
16314;SDS011;8266;52.150;4.768;2023-04-15T01:09:28;4.53;;;3.28;;
16314;SDS011;8266;52.150;4.768;2023-04-15T01:11:54;6.57;;;3.78;;
16314;SDS011;8266;52.150;4.768;2023-04-15T01:14:22;6.93;;;3.85;;
16314;SDS011;8266;52.150;4.768;2023-04-15T01:16:51;6.78;;;4.00;;
16314;SDS011;8266;52.150;4.768;2023-04-15T01:19:19;5.60;;;3.65;;
16314;SDS011;8266;52.150;4.768;2023-04-15T01:21:46;4.65;;;3.45;;
16314;SDS011;8266;52.150;4.768;2023-04-15T01:24:14;5.55;;;3.63;;
16314;SDS011;8266;52.150;4.768;2023-04-15T01:26:45;4.97;;;3.42;;
16314;SDS011;8266;52.150;4.768;2023-04-15T01:29:13;4.55;;;3.50;;
16314;SDS011;8266;52.150;4.768;2023-04-15T01:31:43;5.05;;;3.50;;
16314;SDS011;8266;52.150;4.768;2023-04-15T01:34:16;9.23;;;3.80;;
16314;SDS011;8266;52.150;4.768;2023-04-15T01:36:43;7.20;;;3.60;;
16314;SDS011;8266;52.150;4.768;2023-04-15T01:39:10;4.60;;;3.65;;
16314;SDS011;8266;52.150;4.768;2023-04-15T01:41:37;3.97;;;3.50;;
16314;SDS011;8266;52.150;4.768;2023-04-15T01:44:06;5.47;;;3.95;;
16314;SDS011;8266;52.150;4.768;2023-04-15T01:46:34;3.97;;;3.20;;
16314;SDS011;8266;52.150;4.768;2023-04-15T01:49:01;4.90;;;3.92;;
16314;SDS011;8266;52.150;4.768;2023-04-15T01:51:28;4.70;;;3.47;;
16314;SDS011;8266;52.150;4.768;2023-04-15T01:53:55;6.40;;;4.10;;
16314;SDS011;8266;52.150;4.768;2023-04-15T01:56:22;5.45;;;3.40;;
16314;SDS011;8266;52.150;4.768;2023-04-15T01:58:49;4.57;;;3.40;;
16314;SDS011;8266;52.150;4.768;2023-04-15T02:01:17;7.25;;;3.85;;
16314;SDS011;8266;52.150;4.768;2023-04-15T02:03:44;4.72;;;3.28;;
16314;SDS011;8266;52.150;4.768;2023-04-15T02:06:12;4.70;;;4.03;;
16314;SDS011;8266;52.150;4.768;2023-04-15T02:08:39;4.25;;;3.58;;
16314;SDS011;8266;52.150;4.768;2023-04-15T02:11:06;5.05;;;3.67;;
16314;SDS011;8266;52.150;4.768;2023-04-15T02:13:33;5.10;;;3.95;;
16314;SDS011;8266;52.150;4.768;2023-04-15T02:16:01;6.95;;;4.28;;
16314;SDS011;8266;52.150;4.768;2023-04-15T02:18:30;4.50;;;3.92;;
16314;SDS011;8266;52.150;4.768;2023-04-15T02:20:57;4.97;;;3.97;;
16314;SDS011;8266;52.150;4.768;2023-04-15T02:23:24;6.97;;;4.32;;
16314;SDS011;8266;52.150;4.768;2023-04-15T02:25:51;4.38;;;3.58;;
16314;SDS011;8266;52.150;4.768;2023-04-15T02:28:18;5.47;;;3.75;;
16314;SDS011;8266;52.150;4.768;2023-04-15T02:30:46;5.40;;;3.80;;
16314;SDS011;8266;52.150;4.768;2023-04-15T02:33:14;4.97;;;3.67;;
16314;SDS011;8266;52.150;4.768;2023-04-15T02:35:43;6.03;;;4.20;;
16314;SDS011;8266;52.150;4.768;2023-04-15T02:38:10;8.65;;;3.92;;
16314;SDS011;8266;52.150;4.768;2023-04-15T02:40:38;6.43;;;4.07;;
16314;SDS011;8266;52.150;4.768;2023-04-15T02:43:05;5.75;;;4.38;;
16314;SDS011;8266;52.150;4.768;2023-04-15T02:45:32;4.45;;;4.05;;
16314;SDS011;8266;52.150;4.768;2023-04-15T02:47:59;5.40;;;3.90;;
16314;SDS011;8266;52.150;4.768;2023-04-15T02:50:30;8.32;;;4.55;;
16314;SDS011;8266;52.150;4.768;2023-04-15T02:52:58;5.05;;;3.92;;
16314;SDS011;8266;52.150;4.768;2023-04-15T02:55:26;5.30;;;3.80;;
16314;SDS011;8266;52.150;4.768;2023-04-15T02:57:53;5.07;;;4.05;;
16314;SDS011;8266;52.150;4.768;2023-04-15T03:00:22;6.68;;;4.43;;
16314;SDS011;8266;52.150;4.768;2023-04-15T03:02:50;6.45;;;4.55;;
16314;SDS011;8266;52.150;4.768;2023-04-15T03:05:22;5.55;;;4.13;;
16314;SDS011;8266;52.150;4.768;2023-04-15T03:07:50;4.88;;;4.07;;
16314;SDS011;8266;52.150;4.768;2023-04-15T03:10:19;4.97;;;3.58;;
16314;SDS011;8266;52.150;4.768;2023-04-15T03:12:46;12.90;;;4.30;;
16314;SDS011;8266;52.150;4.768;2023-04-15T03:15:14;4.72;;;4.07;;
16314;SDS011;8266;52.150;4.768;2023-04-15T03:17:41;5.10;;;4.40;;
16314;SDS011;8266;52.150;4.768;2023-04-15T03:20:08;4.72;;;4.32;;
16314;SDS011;8266;52.150;4.768;2023-04-15T03:22:35;4.82;;;4.30;;
16314;SDS011;8266;52.150;4.768;2023-04-15T03:25:02;6.05;;;4.30;;
16314;SDS011;8266;52.150;4.768;2023-04-15T03:27:31;5.53;;;4.00;;
16314;SDS011;8266;52.150;4.768;2023-04-15T03:29:58;7.40;;;4.78;;
16314;SDS011;8266;52.150;4.768;2023-04-15T03:32:25;5.28;;;4.00;;
16314;SDS011;8266;52.150;4.768;2023-04-15T03:34:52;4.80;;;4.32;;
16314;SDS011;8266;52.150;4.768;2023-04-15T03:37:19;7.25;;;4.15;;
16314;SDS011;8266;52.150;4.768;2023-04-15T03:39:46;4.60;;;4.07;;
16314;SDS011;8266;52.150;4.768;2023-04-15T03:42:13;5.82;;;4.22;;
16314;SDS011;8266;52.150;4.768;2023-04-15T03:44:42;5.43;;;4.22;;
16314;SDS011;8266;52.150;4.768;2023-04-15T03:47:08;5.07;;;4.30;;
16314;SDS011;8266;52.150;4.768;2023-04-15T03:49:36;6.18;;;4.30;;
16314;SDS011;8266;52.150;4.768;2023-04-15T03:52:03;6.47;;;4.45;;
16314;SDS011;8266;52.150;4.768;2023-04-15T03:54:30;5.82;;;4.15;;
16314;SDS011;8266;52.150;4.768;2023-04-15T03:56:57;5.82;;;4.45;;
16314;SDS011;8266;52.150;4.768;2023-04-15T03:59:24;7.85;;;4.90;;
16314;SDS011;8266;52.150;4.768;2023-04-15T04:01:52;5.93;;;4.90;;
16314;SDS011;8266;52.150;4.768;2023-04-15T04:04:19;8.05;;;4.30;;
16314;SDS011;8266;52.150;4.768;2023-04-15T04:06:46;6.28;;;4.53;;
16314;SDS011;8266;52.150;4.768;2023-04-15T04:09:13;5.20;;;4.35;;
16314;SDS011;8266;52.150;4.768;2023-04-15T04:11:40;6.18;;;4.63;;
16314;SDS011;8266;52.150;4.768;2023-04-15T04:14:07;6.80;;;4.78;;
16314;SDS011;8266;52.150;4.768;2023-04-15T04:16:34;8.65;;;4.13;;
16314;SDS011;8266;52.150;4.768;2023-04-15T04:19:02;5.82;;;4.13;;
16314;SDS011;8266;52.150;4.768;2023-04-15T04:21:29;5.07;;;4.30;;
16314;SDS011;8266;52.150;4.768;2023-04-15T04:23:58;7.70;;;4.60;;
16314;SDS011;8266;52.150;4.768;2023-04-15T04:26:25;5.03;;;4.60;;
16314;SDS011;8266;52.150;4.768;2023-04-15T04:28:52;4.97;;;4.45;;
16314;SDS011;8266;52.150;4.768;2023-04-15T04:31:18;7.03;;;4.30;;
16314;SDS011;8266;52.150;4.768;2023-04-15T04:33:45;5.75;;;4.43;;
16314;SDS011;8266;52.150;4.768;2023-04-15T04:36:14;5.35;;;4.85;;
16314;SDS011;8266;52.150;4.768;2023-04-15T04:38:41;5.25;;;4.75;;
16314;SDS011;8266;52.150;4.768;2023-04-15T04:41:08;7.28;;;4.72;;
16314;SDS011;8266;52.150;4.768;2023-04-15T04:43:35;6.22;;;4.57;;
16314;SDS011;8266;52.150;4.768;2023-04-15T04:46:01;5.88;;;4.45;;
16314;SDS011;8266;52.150;4.768;2023-04-15T04:48:28;6.22;;;5.45;;
16314;SDS011;8266;52.150;4.768;2023-04-15T04:50:55;5.25;;;4.75;;
16314;SDS011;8266;52.150;4.768;2023-04-15T04:53:24;8.13;;;5.18;;
16314;SDS011;8266;52.150;4.768;2023-04-15T04:55:52;5.22;;;4.72;;
16314;SDS011;8266;52.150;4.768;2023-04-15T04:58:19;5.88;;;5.20;;
16314;SDS011;8266;52.150;4.768;2023-04-15T05:00:45;7.32;;;4.88;;
16314;SDS011;8266;52.150;4.768;2023-04-15T05:03:12;5.53;;;4.95;;
16314;SDS011;8266;52.150;4.768;2023-04-15T05:05:42;8.07;;;5.95;;
16314;SDS011;8266;52.150;4.768;2023-04-15T05:08:09;8.55;;;5.97;;
16314;SDS011;8266;52.150;4.768;2023-04-15T05:10:37;5.60;;;5.03;;
16314;SDS011;8266;52.150;4.768;2023-04-15T05:13:04;6.75;;;5.40;;
16314;SDS011;8266;52.150;4.768;2023-04-15T05:15:31;5.53;;;5.03;;
16314;SDS011;8266;52.150;4.768;2023-04-15T05:18:00;7.35;;;5.28;;
16314;SDS011;8266;52.150;4.768;2023-04-15T05:20:27;6.90;;;6.20;;
16314;SDS011;8266;52.150;4.768;2023-04-15T05:22:55;7.85;;;5.68;;
16314;SDS011;8266;52.150;4.768;2023-04-15T05:25:22;7.80;;;6.13;;
16314;SDS011;8266;52.150;4.768;2023-04-15T05:27:50;8.48;;;5.75;;
16314;SDS011;8266;52.150;4.768;2023-04-15T05:30:17;6.72;;;5.82;;
16314;SDS011;8266;52.150;4.768;2023-04-15T05:32:44;6.57;;;5.97;;
16314;SDS011;8266;52.150;4.768;2023-04-15T05:35:11;7.07;;;6.28;;
16314;SDS011;8266;52.150;4.768;2023-04-15T05:37:38;6.57;;;5.85;;
16314;SDS011;8266;52.150;4.768;2023-04-15T05:40:05;6.18;;;4.97;;
16314;SDS011;8266;52.150;4.768;2023-04-15T05:42:34;7.32;;;6.38;;
16314;SDS011;8266;52.150;4.768;2023-04-15T05:45:03;7.75;;;6.65;;
16314;SDS011;8266;52.150;4.768;2023-04-15T05:47:33;6.57;;;5.88;;
16314;SDS011;8266;52.150;4.768;2023-04-15T05:50:01;7.88;;;5.57;;
16314;SDS011;8266;52.150;4.768;2023-04-15T05:52:28;6.40;;;5.65;;
16314;SDS011;8266;52.150;4.768;2023-04-15T05:54:56;6.80;;;5.50;;
16314;SDS011;8266;52.150;4.768;2023-04-15T05:57:23;6.82;;;5.53;;
16314;SDS011;8266;52.150;4.768;2023-04-15T05:59:50;6.82;;;5.47;;
16314;SDS011;8266;52.150;4.768;2023-04-15T06:02:18;8.07;;;5.22;;
16314;SDS011;8266;52.150;4.768;2023-04-15T06:04:45;8.13;;;6.72;;
16314;SDS011;8266;52.150;4.768;2023-04-15T06:07:12;6.78;;;5.82;;
16314;SDS011;8266;52.150;4.768;2023-04-15T06:09:39;6.68;;;5.97;;
16314;SDS011;8266;52.150;4.768;2023-04-15T06:12:06;6.82;;;6.03;;
16314;SDS011;8266;52.150;4.768;2023-04-15T06:14:36;5.97;;;5.47;;
16314;SDS011;8266;52.150;4.768;2023-04-15T06:17:03;8.57;;;6.22;;
16314;SDS011;8266;52.150;4.768;2023-04-15T06:19:31;7.10;;;6.30;;
16314;SDS011;8266;52.150;4.768;2023-04-15T06:21:58;6.63;;;5.93;;
16314;SDS011;8266;52.150;4.768;2023-04-15T06:24:26;9.68;;;6.05;;
16314;SDS011;8266;52.150;4.768;2023-04-15T06:26:53;6.25;;;5.65;;
16314;SDS011;8266;52.150;4.768;2023-04-15T06:29:20;8.25;;;6.15;;
16314;SDS011;8266;52.150;4.768;2023-04-15T06:31:47;7.07;;;6.38;;
16314;SDS011;8266;52.150;4.768;2023-04-15T06:34:14;6.13;;;5.53;;
16314;SDS011;8266;52.150;4.768;2023-04-15T06:36:42;6.63;;;5.93;;
16314;SDS011;8266;52.150;4.768;2023-04-15T06:39:10;6.45;;;5.78;;
16314;SDS011;8266;52.150;4.768;2023-04-15T06:41:36;7.18;;;6.28;;
16314;SDS011;8266;52.150;4.768;2023-04-15T06:44:03;7.82;;;5.60;;
16314;SDS011;8266;52.150;4.768;2023-04-15T06:46:31;6.10;;;5.50;;
16314;SDS011;8266;52.150;4.768;2023-04-15T06:48:58;6.82;;;6.22;;
16314;SDS011;8266;52.150;4.768;2023-04-15T06:51:24;8.90;;;7.32;;
16314;SDS011;8266;52.150;4.768;2023-04-15T06:53:53;8.38;;;6.80;;
16314;SDS011;8266;52.150;4.768;2023-04-15T06:56:20;7.45;;;6.70;;
16314;SDS011;8266;52.150;4.768;2023-04-15T06:58:48;7.38;;;6.68;;
16314;SDS011;8266;52.150;4.768;2023-04-15T07:01:15;6.70;;;6.00;;
16314;SDS011;8266;52.150;4.768;2023-04-15T07:03:42;7.82;;;6.32;;
16314;SDS011;8266;52.150;4.768;2023-04-15T07:06:10;6.18;;;5.60;;
16314;SDS011;8266;52.150;4.768;2023-04-15T07:08:37;7.35;;;6.40;;
16314;SDS011;8266;52.150;4.768;2023-04-15T07:11:05;6.70;;;6.10;;
16314;SDS011;8266;52.150;4.768;2023-04-15T07:13:32;7.55;;;6.10;;
16314;SDS011;8266;52.150;4.768;2023-04-15T07:16:00;7.22;;;6.53;;
16314;SDS011;8266;52.150;4.768;2023-04-15T07:18:27;6.97;;;6.32;;
16314;SDS011;8266;52.150;4.768;2023-04-15T07:20:54;7.70;;;6.90;;
16314;SDS011;8266;52.150;4.768;2023-04-15T07:23:21;6.53;;;5.93;;
16314;SDS011;8266;52.150;4.768;2023-04-15T07:25:48;7.05;;;6.43;;
16314;SDS011;8266;52.150;4.768;2023-04-15T07:28:17;6.60;;;6.00;;
16314;SDS011;8266;52.150;4.768;2023-04-15T07:30:44;9.55;;;5.70;;
16314;SDS011;8266;52.150;4.768;2023-04-15T07:33:11;5.82;;;5.32;;
16314;SDS011;8266;52.150;4.768;2023-04-15T07:35:39;5.57;;;5.07;;
16314;SDS011;8266;52.150;4.768;2023-04-15T07:38:07;5.75;;;5.25;;
16314;SDS011;8266;52.150;4.768;2023-04-15T07:40:36;5.85;;;5.35;;
16314;SDS011;8266;52.150;4.768;2023-04-15T07:43:04;5.18;;;4.78;;
16314;SDS011;8266;52.150;4.768;2023-04-15T07:45:32;6.40;;;5.47;;
16314;SDS011;8266;52.150;4.768;2023-04-15T07:48:00;4.95;;;4.45;;
16314;SDS011;8266;52.150;4.768;2023-04-15T07:50:27;5.43;;;4.70;;
16314;SDS011;8266;52.150;4.768;2023-04-15T07:52:54;4.75;;;4.35;;
16314;SDS011;8266;52.150;4.768;2023-04-15T07:55:21;5.25;;;4.75;;
16314;SDS011;8266;52.150;4.768;2023-04-15T07:57:48;4.55;;;4.20;;
16314;SDS011;8266;52.150;4.768;2023-04-15T08:00:16;5.30;;;4.40;;
16314;SDS011;8266;52.150;4.768;2023-04-15T08:02:44;3.90;;;3.60;;
16314;SDS011;8266;52.150;4.768;2023-04-15T08:05:12;5.07;;;4.60;;
16314;SDS011;8266;52.150;4.768;2023-04-15T08:07:39;4.13;;;3.83;;
16314;SDS011;8266;52.150;4.768;2023-04-15T08:10:07;4.05;;;3.60;;
16314;SDS011;8266;52.150;4.768;2023-04-15T08:12:34;3.65;;;3.35;;
16314;SDS011;8266;52.150;4.768;2023-04-15T08:15:02;5.53;;;3.60;;
16314;SDS011;8266;52.150;4.768;2023-04-15T08:17:29;4.00;;;3.70;;
16314;SDS011;8266;52.150;4.768;2023-04-15T08:19:57;6.15;;;3.58;;
16314;SDS011;8266;52.150;4.768;2023-04-15T08:22:24;3.55;;;3.22;;
16314;SDS011;8266;52.150;4.768;2023-04-15T08:24:51;4.32;;;3.38;;
16314;SDS011;8266;52.150;4.768;2023-04-15T08:27:18;4.47;;;3.45;;
16314;SDS011;8266;52.150;4.768;2023-04-15T08:29:45;4.15;;;3.38;;
16314;SDS011;8266;52.150;4.768;2023-04-15T08:32:12;3.53;;;3.22;;
16314;SDS011;8266;52.150;4.768;2023-04-15T08:34:40;4.03;;;3.58;;
16314;SDS011;8266;52.150;4.768;2023-04-15T08:37:08;4.72;;;3.92;;
16314;SDS011;8266;52.150;4.768;2023-04-15T08:39:35;3.67;;;3.38;;
16314;SDS011;8266;52.150;4.768;2023-04-15T08:42:03;3.90;;;3.50;;
16314;SDS011;8266;52.150;4.768;2023-04-15T08:44:33;3.75;;;3.35;;
16314;SDS011;8266;52.150;4.768;2023-04-15T08:47:02;3.58;;;3.28;;
16314;SDS011;8266;52.150;4.768;2023-04-15T08:49:32;3.83;;;3.42;;
16314;SDS011;8266;52.150;4.768;2023-04-15T08:52:04;3.75;;;3.33;;
16314;SDS011;8266;52.150;4.768;2023-04-15T08:54:33;4.82;;;3.75;;
16314;SDS011;8266;52.150;4.768;2023-04-15T08:57:01;4.82;;;3.38;;
16314;SDS011;8266;52.150;4.768;2023-04-15T08:59:29;4.30;;;3.90;;
16314;SDS011;8266;52.150;4.768;2023-04-15T09:01:56;5.53;;;3.88;;
16314;SDS011;8266;52.150;4.768;2023-04-15T09:04:23;5.13;;;4.00;;
16314;SDS011;8266;52.150;4.768;2023-04-15T09:06:50;4.57;;;3.63;;
16314;SDS011;8266;52.150;4.768;2023-04-15T09:09:17;4.38;;;3.78;;
16314;SDS011;8266;52.150;4.768;2023-04-15T09:11:45;5.32;;;3.97;;
16314;SDS011;8266;52.150;4.768;2023-04-15T09:14:14;4.05;;;3.47;;
16314;SDS011;8266;52.150;4.768;2023-04-15T09:16:57;4.00;;;3.60;;
16314;SDS011;8266;52.150;4.768;2023-04-15T09:19:25;3.42;;;2.92;;
16314;SDS011;8266;52.150;4.768;2023-04-15T09:21:52;3.80;;;2.53;;
16314;SDS011;8266;52.150;4.768;2023-04-15T09:24:20;3.28;;;2.35;;
16314;SDS011;8266;52.150;4.768;2023-04-15T09:26:50;2.75;;;2.00;;
16314;SDS011;8266;52.150;4.768;2023-04-15T09:29:18;3.17;;;1.90;;
16314;SDS011;8266;52.150;4.768;2023-04-15T09:31:45;2.72;;;2.53;;
16314;SDS011;8266;52.150;4.768;2023-04-15T09:34:12;2.47;;;2.17;;
16314;SDS011;8266;52.150;4.768;2023-04-15T09:36:51;2.60;;;2.05;;
16314;SDS011;8266;52.150;4.768;2023-04-15T09:39:19;5.40;;;2.47;;
16314;SDS011;8266;52.150;4.768;2023-04-15T09:41:46;4.25;;;2.63;;
16314;SDS011;8266;52.150;4.768;2023-04-15T09:44:31;4.50;;;2.42;;
16314;SDS011;8266;52.150;4.768;2023-04-15T09:46:57;3.42;;;2.30;;
16314;SDS011;8266;52.150;4.768;2023-04-15T09:49:24;3.13;;;2.10;;
16314;SDS011;8266;52.150;4.768;2023-04-15T09:51:56;2.63;;;1.70;;
16314;SDS011;8266;52.150;4.768;2023-04-15T09:54:25;4.10;;;2.55;;
16314;SDS011;8266;52.150;4.768;2023-04-15T09:57:07;3.72;;;2.38;;
16314;SDS011;8266;52.150;4.768;2023-04-15T09:59:36;2.70;;;1.80;;
16314;SDS011;8266;52.150;4.768;2023-04-15T10:02:03;2.53;;;2.17;;
16314;SDS011;8266;52.150;4.768;2023-04-15T10:04:32;3.22;;;2.20;;
16314;SDS011;8266;52.150;4.768;2023-04-15T10:07:02;2.78;;;1.92;;
16314;SDS011;8266;52.150;4.768;2023-04-15T10:09:30;2.00;;;1.85;;
16314;SDS011;8266;52.150;4.768;2023-04-15T10:11:58;2.47;;;2.20;;
16314;SDS011;8266;52.150;4.768;2023-04-15T10:14:28;2.47;;;1.85;;
16314;SDS011;8266;52.150;4.768;2023-04-15T10:16:58;2.45;;;2.15;;
16314;SDS011;8266;52.150;4.768;2023-04-15T10:19:28;3.40;;;2.53;;
16314;SDS011;8266;52.150;4.768;2023-04-15T10:22:01;3.08;;;2.33;;
16314;SDS011;8266;52.150;4.768;2023-04-15T10:24:28;2.55;;;1.50;;
16314;SDS011;8266;52.150;4.768;2023-04-15T10:26:57;2.97;;;1.70;;
16314;SDS011;8266;52.150;4.768;2023-04-15T10:29:25;1.45;;;1.27;;
16314;SDS011;8266;52.150;4.768;2023-04-15T10:31:53;3.03;;;1.73;;
16314;SDS011;8266;52.150;4.768;2023-04-15T10:34:21;2.55;;;1.83;;
16314;SDS011;8266;52.150;4.768;2023-04-15T10:36:50;3.15;;;1.80;;
16314;SDS011;8266;52.150;4.768;2023-04-15T10:42:09;2.00;;;1.80;;
16314;SDS011;8266;52.150;4.768;2023-04-15T10:44:37;2.50;;;2.30;;
16314;SDS011;8266;52.150;4.768;2023-04-15T10:47:13;2.55;;;2.08;;
16314;SDS011;8266;52.150;4.768;2023-04-15T10:49:43;2.63;;;1.98;;
16314;SDS011;8266;52.150;4.768;2023-04-15T10:52:12;2.80;;;2.35;;
16314;SDS011;8266;52.150;4.768;2023-04-15T10:54:41;3.17;;;2.47;;
16314;SDS011;8266;52.150;4.768;2023-04-15T10:57:12;4.43;;;2.67;;
16314;SDS011;8266;52.150;4.768;2023-04-15T11:00:01;4.18;;;2.60;;
16314;SDS011;8266;52.150;4.768;2023-04-15T11:02:41;2.75;;;2.30;;
16314;SDS011;8266;52.150;4.768;2023-04-15T11:05:10;3.22;;;2.17;;
16314;SDS011;8266;52.150;4.768;2023-04-15T11:07:46;3.92;;;2.08;;
16314;SDS011;8266;52.150;4.768;2023-04-15T11:13:20;2.65;;;2.10;;
16314;SDS011;8266;52.150;4.768;2023-04-15T11:15:49;3.72;;;2.80;;
16314;SDS011;8266;52.150;4.768;2023-04-15T11:18:18;4.45;;;3.03;;
16314;SDS011;8266;52.150;4.768;2023-04-15T11:20:47;3.45;;;1.98;;
16314;SDS011;8266;52.150;4.768;2023-04-15T11:23:16;3.10;;;2.28;;
16314;SDS011;8266;52.150;4.768;2023-04-15T11:25:43;4.20;;;2.63;;
16314;SDS011;8266;52.150;4.768;2023-04-15T11:28:12;3.05;;;2.55;;
16314;SDS011;8266;52.150;4.768;2023-04-15T11:30:39;3.03;;;2.15;;
16314;SDS011;8266;52.150;4.768;2023-04-15T11:33:09;3.80;;;2.28;;
16314;SDS011;8266;52.150;4.768;2023-04-15T11:35:40;3.25;;;2.20;;
16314;SDS011;8266;52.150;4.768;2023-04-15T11:38:11;3.03;;;2.10;;
16314;SDS011;8266;52.150;4.768;2023-04-15T11:40:40;2.83;;;1.80;;
16314;SDS011;8266;52.150;4.768;2023-04-15T11:43:08;2.45;;;1.83;;
16314;SDS011;8266;52.150;4.768;2023-04-15T11:45:47;2.25;;;1.80;;
16314;SDS011;8266;52.150;4.768;2023-04-15T11:48:17;2.70;;;1.80;;
16314;SDS011;8266;52.150;4.768;2023-04-15T11:50:51;2.83;;;1.77;;
16314;SDS011;8266;52.150;4.768;2023-04-15T11:53:20;2.60;;;1.60;;
16314;SDS011;8266;52.150;4.768;2023-04-15T11:55:49;2.63;;;1.60;;
16314;SDS011;8266;52.150;4.768;2023-04-15T11:58:17;2.17;;;1.42;;
16314;SDS011;8266;52.150;4.768;2023-04-15T12:00:46;2.30;;;1.13;;
16314;SDS011;8266;52.150;4.768;2023-04-15T12:03:18;2.35;;;1.52;;
16314;SDS011;8266;52.150;4.768;2023-04-15T12:06:07;1.27;;;1.10;;
16314;SDS011;8266;52.150;4.768;2023-04-15T12:08:56;4.38;;;1.30;;
16314;SDS011;8266;52.150;4.768;2023-04-15T12:11:31;2.90;;;1.52;;
16314;SDS011;8266;52.150;4.768;2023-04-15T12:14:04;1.20;;;1.10;;
16314;SDS011;8266;52.150;4.768;2023-04-15T12:16:33;1.67;;;1.35;;
16314;SDS011;8266;52.150;4.768;2023-04-15T12:19:03;3.30;;;1.42;;
16314;SDS011;8266;52.150;4.768;2023-04-15T12:21:34;1.35;;;1.10;;
16314;SDS011;8266;52.150;4.768;2023-04-15T12:24:03;2.08;;;1.40;;
16314;SDS011;8266;52.150;4.768;2023-04-15T12:26:35;3.03;;;1.10;;
16314;SDS011;8266;52.150;4.768;2023-04-15T12:29:03;2.75;;;1.20;;
16314;SDS011;8266;52.150;4.768;2023-04-15T12:31:32;2.45;;;1.30;;
16314;SDS011;8266;52.150;4.768;2023-04-15T12:34:01;3.45;;;1.30;;
16314;SDS011;8266;52.150;4.768;2023-04-15T12:36:28;2.72;;;1.80;;
16314;SDS011;8266;52.150;4.768;2023-04-15T12:39:01;2.90;;;1.20;;
16314;SDS011;8266;52.150;4.768;2023-04-15T12:41:29;2.00;;;1.13;;
16314;SDS011;8266;52.150;4.768;2023-04-15T12:43:56;2.72;;;1.35;;
16314;SDS011;8266;52.150;4.768;2023-04-15T12:46:23;1.40;;;1.15;;
16314;SDS011;8266;52.150;4.768;2023-04-15T12:48:51;1.60;;;1.27;;
16314;SDS011;8266;52.150;4.768;2023-04-15T12:51:18;1.50;;;1.38;;
16314;SDS011;8266;52.150;4.768;2023-04-15T12:53:46;1.48;;;1.20;;
16314;SDS011;8266;52.150;4.768;2023-04-15T12:56:15;1.98;;;1.20;;
16314;SDS011;8266;52.150;4.768;2023-04-15T12:58:42;1.67;;;1.40;;
16314;SDS011;8266;52.150;4.768;2023-04-15T13:01:09;2.70;;;1.30;;
16314;SDS011;8266;52.150;4.768;2023-04-15T13:03:36;1.50;;;1.40;;
16314;SDS011;8266;52.150;4.768;2023-04-15T13:06:03;2.08;;;1.17;;
16314;SDS011;8266;52.150;4.768;2023-04-15T13:08:30;1.45;;;1.10;;
16314;SDS011;8266;52.150;4.768;2023-04-15T13:10:57;1.85;;;0.95;;
16314;SDS011;8266;52.150;4.768;2023-04-15T13:13:26;2.08;;;1.10;;
16314;SDS011;8266;52.150;4.768;2023-04-15T13:15:53;1.95;;;1.00;;
16314;SDS011;8266;52.150;4.768;2023-04-15T13:18:20;1.63;;;1.20;;
16314;SDS011;8266;52.150;4.768;2023-04-15T13:20:47;3.28;;;1.17;;
16314;SDS011;8266;52.150;4.768;2023-04-15T13:23:15;2.13;;;0.90;;
16314;SDS011;8266;52.150;4.768;2023-04-15T13:25:42;1.55;;;1.02;;
16314;SDS011;8266;52.150;4.768;2023-04-15T13:28:09;1.77;;;1.02;;
16314;SDS011;8266;52.150;4.768;2023-04-15T13:30:38;1.13;;;0.80;;
16314;SDS011;8266;52.150;4.768;2023-04-15T13:33:05;3.50;;;1.75;;
16314;SDS011;8266;52.150;4.768;2023-04-15T13:35:32;1.42;;;0.90;;
16314;SDS011;8266;52.150;4.768;2023-04-15T13:37:59;2.10;;;1.08;;
16314;SDS011;8266;52.150;4.768;2023-04-15T13:40:26;1.75;;;1.20;;
16314;SDS011;8266;52.150;4.768;2023-04-15T13:42:53;2.30;;;1.33;;
16314;SDS011;8266;52.150;4.768;2023-04-15T13:45:22;1.92;;;1.05;;
16314;SDS011;8266;52.150;4.768;2023-04-15T13:47:51;2.20;;;0.70;;
16314;SDS011;8266;52.150;4.768;2023-04-15T13:50:18;2.17;;;0.95;;
16314;SDS011;8266;52.150;4.768;2023-04-15T13:52:45;3.15;;;1.00;;
16314;SDS011;8266;52.150;4.768;2023-04-15T13:55:12;2.80;;;0.70;;
16314;SDS011;8266;52.150;4.768;2023-04-15T13:57:39;2.42;;;0.80;;
16314;SDS011;8266;52.150;4.768;2023-04-15T14:00:07;2.85;;;0.80;;
16314;SDS011;8266;52.150;4.768;2023-04-15T14:02:35;1.90;;;1.00;;
16314;SDS011;8266;52.150;4.768;2023-04-15T14:05:03;2.55;;;0.68;;
16314;SDS011;8266;52.150;4.768;2023-04-15T14:07:31;1.52;;;0.73;;
16314;SDS011;8266;52.150;4.768;2023-04-15T14:09:58;1.88;;;1.00;;
16314;SDS011;8266;52.150;4.768;2023-04-15T14:12:25;4.72;;;1.30;;
16314;SDS011;8266;52.150;4.768;2023-04-15T14:14:52;2.55;;;1.10;;
16314;SDS011;8266;52.150;4.768;2023-04-15T14:17:19;1.55;;;0.82;;
16314;SDS011;8266;52.150;4.768;2023-04-15T14:19:46;1.40;;;0.90;;
16314;SDS011;8266;52.150;4.768;2023-04-15T14:22:14;4.47;;;1.00;;
16314;SDS011;8266;52.150;4.768;2023-04-15T14:24:43;2.17;;;0.80;;
16314;SDS011;8266;52.150;4.768;2023-04-15T14:27:10;2.25;;;0.80;;
16314;SDS011;8266;52.150;4.768;2023-04-15T14:29:37;1.65;;;0.90;;
16314;SDS011;8266;52.150;4.768;2023-04-15T14:32:04;1.55;;;0.77;;
16314;SDS011;8266;52.150;4.768;2023-04-15T14:34:32;1.42;;;0.70;;
16314;SDS011;8266;52.150;4.768;2023-04-15T14:36:58;1.52;;;0.80;;
16314;SDS011;8266;52.150;4.768;2023-04-15T14:39:27;2.10;;;1.05;;
16314;SDS011;8266;52.150;4.768;2023-04-15T14:41:54;1.33;;;0.70;;
16314;SDS011;8266;52.150;4.768;2023-04-15T14:44:21;2.47;;;0.80;;
16314;SDS011;8266;52.150;4.768;2023-04-15T14:46:48;2.70;;;0.90;;
16314;SDS011;8266;52.150;4.768;2023-04-15T14:49:16;3.22;;;1.20;;
16314;SDS011;8266;52.150;4.768;2023-04-15T14:51:43;1.90;;;0.85;;
16314;SDS011;8266;52.150;4.768;2023-04-15T14:54:10;3.40;;;1.02;;
16314;SDS011;8266;52.150;4.768;2023-04-15T14:56:38;3.25;;;1.10;;
16314;SDS011;8266;52.150;4.768;2023-04-15T14:59:05;1.55;;;0.70;;
16314;SDS011;8266;52.150;4.768;2023-04-15T15:01:32;1.27;;;0.55;;
16314;SDS011;8266;52.150;4.768;2023-04-15T15:03:59;2.78;;;0.93;;
16314;SDS011;8266;52.150;4.768;2023-04-15T15:06:26;4.22;;;1.05;;
16314;SDS011;8266;52.150;4.768;2023-04-15T15:08:53;2.17;;;0.90;;
16314;SDS011;8266;52.150;4.768;2023-04-15T15:11:20;1.58;;;1.00;;